createdAt,value
2023-04-20T00:01:15.213Z,102022.81
2023-04-20T00:03:42.324Z,102020.72
2023-04-20T00:06:09.290Z,102022.81
2023-04-20T00:08:36.252Z,102018.81
2023-04-20T00:11:03.068Z,102010.41
2023-04-20T00:13:29.946Z,102015.97
2023-04-20T00:15:56.890Z,102020.03
2023-04-20T00:18:23.689Z,102019.06
2023-04-20T00:20:50.764Z,102016.47
2023-04-20T00:23:18.941Z,102013.94
2023-04-20T00:25:45.958Z,102012.94
2023-04-20T00:28:12.795Z,102011.75
2023-04-20T00:30:40.985Z,102010.00
2023-04-20T00:33:07.820Z,102006.72
2023-04-20T00:35:34.802Z,102009.09
2023-04-20T00:38:01.613Z,102002.91
2023-04-20T00:40:29.541Z,102005.44
2023-04-20T00:42:56.737Z,101996.50
2023-04-20T00:45:23.786Z,102007.13
2023-04-20T00:47:51.582Z,102004.66
2023-04-20T00:50:18.504Z,102001.09
2023-04-20T00:52:45.693Z,101998.41
2023-04-20T00:55:12.824Z,101989.81
2023-04-20T00:57:39.993Z,101989.75
2023-04-20T01:00:07.556Z,101994.38
2023-04-20T01:02:34.551Z,101988.06
2023-04-20T01:05:01.839Z,101991.00
2023-04-20T01:07:30.232Z,101980.50
2023-04-20T01:09:57.044Z,101980.72
2023-04-20T01:12:23.780Z,101976.38
2023-04-20T01:14:50.715Z,101988.22
2023-04-20T01:17:20.398Z,101977.97
2023-04-20T01:19:47.350Z,101973.56
2023-04-20T01:22:18.437Z,101970.28
2023-04-20T01:24:45.761Z,101979.13
2023-04-20T01:27:13.738Z,101967.84
2023-04-20T01:29:40.861Z,101960.63
2023-04-20T01:32:10.228Z,101966.06
2023-04-20T01:34:37.693Z,101951.59
2023-04-20T01:37:08.351Z,101951.84
2023-04-20T01:39:36.660Z,101957.06
2023-04-20T01:42:03.646Z,101955.47
2023-04-20T01:44:30.493Z,101939.03
2023-04-20T01:46:57.364Z,101945.34
2023-04-20T01:49:24.266Z,101940.75
2023-04-20T01:51:51.865Z,101939.94
2023-04-20T01:54:18.733Z,101940.53
2023-04-20T01:56:45.525Z,101938.25
2023-04-20T01:59:12.484Z,101937.59
2023-04-20T02:01:39.289Z,101932.84
2023-04-20T02:04:06.149Z,101930.94
2023-04-20T02:06:33.317Z,101936.50
2023-04-20T02:09:00.240Z,101919.19
2023-04-20T02:11:27.013Z,101930.84
2023-04-20T02:13:53.773Z,101926.91
2023-04-20T02:16:21.878Z,101923.75
2023-04-20T02:18:48.725Z,101926.59
2023-04-20T02:21:15.434Z,101923.53
2023-04-20T02:23:42.285Z,101917.25
2023-04-20T02:26:09.024Z,101912.72
2023-04-20T02:28:36.114Z,101913.00
2023-04-20T02:31:04.928Z,101910.50
2023-04-20T02:33:31.896Z,101909.94
2023-04-20T02:35:58.731Z,101910.72
2023-04-20T02:38:26.193Z,101916.78
2023-04-20T02:40:53.072Z,101919.09
2023-04-20T02:43:20.745Z,101909.34
2023-04-20T02:45:48.632Z,101914.16
2023-04-20T02:48:16.011Z,101904.50
2023-04-20T02:50:43.313Z,101913.09
2023-04-20T02:53:17.613Z,101901.34
2023-04-20T02:55:49.133Z,101907.59
2023-04-20T02:58:34.603Z,101902.81
2023-04-20T03:01:21.890Z,101904.41
2023-04-20T03:03:51.929Z,101904.94
2023-04-20T03:06:19.066Z,101908.91
2023-04-20T03:08:52.296Z,101899.44
2023-04-20T03:11:42.150Z,101905.63
2023-04-20T03:14:11.490Z,101898.66
2023-04-20T03:16:38.652Z,101894.50
2023-04-20T03:19:05.530Z,101896.84
2023-04-20T03:21:33.162Z,101901.16
2023-04-20T03:24:00.772Z,101897.94
2023-04-20T03:26:27.765Z,101899.59
2023-04-20T03:29:18.194Z,101905.94
2023-04-20T03:31:45.583Z,101897.50
2023-04-20T03:34:12.843Z,101893.69
2023-04-20T03:36:40.207Z,101893.63
2023-04-20T03:39:07.437Z,101905.81
2023-04-20T03:41:34.292Z,101903.00
2023-04-20T03:44:01.432Z,101905.59
2023-04-20T03:46:28.671Z,101893.94
2023-04-20T03:48:55.464Z,101890.34
2023-04-20T03:51:23.472Z,101888.47
2023-04-20T03:53:50.442Z,101886.28
2023-04-20T03:56:17.378Z,101881.94
2023-04-20T03:58:44.823Z,101885.50
2023-04-20T04:01:21.608Z,101874.84
2023-04-20T04:03:49.747Z,101876.34
2023-04-20T04:06:17.229Z,101879.88
2023-04-20T04:08:44.148Z,101879.13
2023-04-20T04:11:11.016Z,101869.16
2023-04-20T04:13:37.993Z,101872.72
2023-04-20T04:16:07.474Z,101869.53
2023-04-20T04:18:35.550Z,101867.75
2023-04-20T04:21:10.266Z,101870.19
2023-04-20T04:23:39.223Z,101860.38
2023-04-20T04:26:33.755Z,101862.66
2023-04-20T04:29:00.905Z,101860.41
2023-04-20T04:31:28.685Z,101859.56
2023-04-20T04:34:03.835Z,101861.66
2023-04-20T04:36:39.754Z,101858.66
2023-04-20T04:39:10.047Z,101850.81
2023-04-20T04:41:40.236Z,101858.94
2023-04-20T04:44:18.125Z,101854.50
2023-04-20T04:46:45.825Z,101861.41
2023-04-20T04:49:13.104Z,101867.56
2023-04-20T04:51:40.979Z,101859.28
2023-04-20T04:54:07.803Z,101862.63
2023-04-20T04:56:34.652Z,101870.53
2023-04-20T04:59:01.513Z,101866.28
2023-04-20T05:01:28.376Z,101871.88
2023-04-20T05:03:55.372Z,101862.03
2023-04-20T05:06:22.346Z,101852.94
2023-04-20T05:08:49.139Z,101862.00
2023-04-20T05:11:15.923Z,101857.78
2023-04-20T05:13:43.061Z,101851.25
2023-04-20T05:16:10.004Z,101861.44
2023-04-20T05:18:36.766Z,101871.13
2023-04-20T05:21:03.684Z,101863.75
2023-04-20T05:23:30.556Z,101865.44
2023-04-20T05:25:57.428Z,101865.97
2023-04-20T05:28:24.199Z,101862.91
2023-04-20T05:30:51.193Z,101871.59
2023-04-20T05:33:17.958Z,101872.28
2023-04-20T05:35:44.775Z,101873.84
2023-04-20T05:38:11.787Z,101871.47
2023-04-20T05:40:38.617Z,101868.63
2023-04-20T05:43:05.471Z,101875.16
2023-04-20T05:45:34.369Z,101874.81
2023-04-20T05:48:01.373Z,101872.84
2023-04-20T05:50:28.278Z,101879.69
2023-04-20T05:52:55.051Z,101874.34
2023-04-20T05:55:22.996Z,101869.69
2023-04-20T05:57:52.018Z,101866.19
2023-04-20T06:00:19.581Z,101875.41
2023-04-20T06:02:46.680Z,101867.91
2023-04-20T06:05:13.907Z,101872.53
2023-04-20T06:07:41.073Z,101874.56
2023-04-20T06:10:08.676Z,101872.09
2023-04-20T06:12:35.721Z,101867.91
2023-04-20T06:15:02.725Z,101873.66
2023-04-20T06:17:29.592Z,101873.53
2023-04-20T06:19:56.429Z,101865.59
2023-04-20T06:22:23.583Z,101866.38
2023-04-20T06:24:50.523Z,101865.19
2023-04-20T06:27:17.307Z,101871.72
2023-04-20T06:29:44.152Z,101869.84
2023-04-20T06:32:11.572Z,101871.81
2023-04-20T06:34:38.342Z,101869.75
2023-04-20T06:37:07.039Z,101874.31
2023-04-20T06:39:35.460Z,101874.69
2023-04-20T06:42:02.881Z,101870.47
2023-04-20T06:44:29.689Z,101878.28
2023-04-20T06:46:56.580Z,101868.03
2023-04-20T06:49:23.477Z,101870.09
2023-04-20T06:51:50.370Z,101869.44
2023-04-20T06:54:17.539Z,101863.31
2023-04-20T06:56:44.397Z,101861.16
2023-04-20T06:59:11.289Z,101861.94
2023-04-20T07:01:38.194Z,101860.34
2023-04-20T07:04:05.485Z,101866.13
2023-04-20T07:06:32.278Z,101855.56
2023-04-20T07:08:59.221Z,101847.28
2023-04-20T07:11:26.182Z,101859.09
2023-04-20T07:13:52.966Z,101856.16
2023-04-20T07:16:19.746Z,101860.97
2023-04-20T07:18:46.630Z,101850.25
2023-04-20T07:21:15.254Z,101848.09
2023-04-20T07:23:44.784Z,101854.34
2023-04-20T07:26:12.172Z,101851.66
2023-04-20T07:28:38.968Z,101849.97
2023-04-20T07:31:06.038Z,101842.31
2023-04-20T07:33:32.894Z,101840.38
2023-04-20T07:36:00.217Z,101835.31
2023-04-20T07:38:26.983Z,101840.19
2023-04-20T07:40:53.777Z,101858.91
2023-04-20T07:43:20.784Z,101847.25
2023-04-20T07:45:48.632Z,101840.78
2023-04-20T07:48:15.440Z,101845.63
2023-04-20T07:50:42.275Z,101847.28
2023-04-20T07:53:09.084Z,101845.97
2023-04-20T07:55:36.093Z,101853.50
2023-04-20T07:58:03.042Z,101850.00
2023-04-20T08:00:30.024Z,101858.53
2023-04-20T08:02:56.896Z,101852.38
2023-04-20T08:05:24.609Z,101849.50
2023-04-20T08:07:51.524Z,101842.66
2023-04-20T08:10:18.582Z,101833.97
2023-04-20T08:12:47.085Z,101836.81
2023-04-20T08:15:14.636Z,101831.47
2023-04-20T08:17:41.828Z,101832.94
2023-04-20T08:20:10.432Z,101828.41
2023-04-20T08:22:37.762Z,101828.09
2023-04-20T08:25:06.092Z,101818.47
2023-04-20T08:27:32.937Z,101827.66
2023-04-20T08:29:59.772Z,101829.16
2023-04-20T08:32:27.091Z,101828.81
2023-04-20T08:34:54.257Z,101823.72
2023-04-20T08:37:21.347Z,101819.81
2023-04-20T08:39:48.092Z,101820.31
2023-04-20T08:42:16.957Z,101819.16
2023-04-20T08:44:43.912Z,101825.00
2023-04-20T08:47:12.126Z,101826.53
2023-04-20T08:49:39.813Z,101824.91
2023-04-20T08:52:10.808Z,101815.19
2023-04-20T08:54:46.093Z,101825.97
2023-04-20T08:57:20.078Z,101828.09
2023-04-20T08:59:46.889Z,101828.25
2023-04-20T09:02:14.400Z,101821.97
2023-04-20T09:04:41.769Z,101817.53
2023-04-20T09:07:21.105Z,101821.63
2023-04-20T09:09:58.507Z,101813.50
2023-04-20T09:12:25.615Z,101812.28
2023-04-20T09:14:53.511Z,101809.41
2023-04-20T09:17:41.256Z,101802.63
2023-04-20T09:20:09.014Z,101801.72
2023-04-20T09:22:36.927Z,101803.09
2023-04-20T09:25:17.747Z,101802.81
2023-04-20T09:27:58.725Z,101800.78
2023-04-20T09:30:26.180Z,101798.09
2023-04-20T09:33:08.072Z,101790.00
2023-04-20T09:35:35.256Z,101791.38
2023-04-20T09:38:02.048Z,101791.50
2023-04-20T09:40:29.125Z,101791.81
2023-04-20T09:42:59.466Z,101790.03
2023-04-20T09:45:26.647Z,101794.56
2023-04-20T09:47:54.034Z,101780.47
2023-04-20T09:50:28.874Z,101789.16
2023-04-20T09:53:00.381Z,101786.91
2023-04-20T09:55:27.618Z,101785.84
2023-04-20T09:57:54.447Z,101782.59
2023-04-20T10:00:21.880Z,101781.56
2023-04-20T10:02:48.934Z,101787.31
2023-04-20T10:05:16.972Z,101787.66
2023-04-20T10:07:44.480Z,101790.41
2023-04-20T10:10:13.557Z,101786.63
2023-04-20T10:12:51.237Z,101783.38
2023-04-20T10:15:18.760Z,101778.72
2023-04-20T10:17:46.260Z,101775.25
2023-04-20T10:20:25.035Z,101780.06
2023-04-20T10:22:52.866Z,101784.22
2023-04-20T10:25:23.257Z,101782.75
2023-04-20T10:27:59.222Z,101787.38
2023-04-20T10:30:27.248Z,101779.28
2023-04-20T10:33:23.240Z,101787.41
2023-04-20T10:35:52.151Z,101766.84
2023-04-20T10:38:51.919Z,101790.09
2023-04-20T10:41:18.849Z,101789.94
2023-04-20T10:43:45.718Z,101784.00
2023-04-20T10:46:23.433Z,101774.47
2023-04-20T10:49:04.078Z,101774.66
2023-04-20T10:51:31.017Z,101776.34
2023-04-20T10:54:05.339Z,101776.00
2023-04-20T10:56:46.207Z,101780.59
2023-04-20T10:59:15.535Z,101778.75
2023-04-20T11:01:43.729Z,101777.09
2023-04-20T11:04:11.715Z,101783.53
2023-04-20T11:06:40.277Z,101774.59
2023-04-20T11:09:26.672Z,101781.28
2023-04-20T11:11:59.969Z,101783.16
2023-04-20T11:14:27.020Z,101781.84
2023-04-20T11:16:54.460Z,101777.44
2023-04-20T11:19:27.334Z,101789.28
2023-04-20T11:21:54.607Z,101777.03
2023-04-20T11:24:24.072Z,101778.34
2023-04-20T11:26:53.237Z,101776.09
2023-04-20T11:29:39.232Z,101765.84
2023-04-20T11:32:10.454Z,101774.13
2023-04-20T11:34:38.722Z,101772.28
2023-04-20T11:37:07.543Z,101773.75
2023-04-20T11:39:34.470Z,101766.31
2023-04-20T11:42:02.147Z,101762.41
2023-04-20T11:44:28.965Z,101758.91
2023-04-20T11:47:00.046Z,101763.44
2023-04-20T11:49:29.045Z,101750.59
2023-04-20T11:51:56.017Z,101751.63
2023-04-20T11:54:24.160Z,101752.03
2023-04-20T11:56:51.716Z,101747.47
2023-04-20T11:59:20.655Z,101751.03
2023-04-20T12:01:48.149Z,101743.59
2023-04-20T12:04:16.456Z,101747.13
2023-04-20T12:06:43.918Z,101745.25
2023-04-20T12:09:11.084Z,101738.63
2023-04-20T12:11:37.900Z,101729.03
2023-04-20T12:14:05.205Z,101733.00
2023-04-20T12:16:32.285Z,101741.50
2023-04-20T12:18:59.488Z,101735.06
2023-04-20T12:21:27.441Z,101723.44
2023-04-20T12:23:54.396Z,101734.25
2023-04-20T12:26:22.618Z,101736.94
2023-04-20T12:28:52.393Z,101731.59
2023-04-20T12:31:19.486Z,101730.09
2023-04-20T12:33:46.374Z,101727.59
2023-04-20T12:36:13.245Z,101726.94
2023-04-20T12:38:40.065Z,101729.81
2023-04-20T12:41:06.945Z,101723.72
2023-04-20T12:43:33.863Z,101737.81
2023-04-20T12:46:00.637Z,101736.28
2023-04-20T12:48:27.517Z,101734.13
2023-04-20T12:50:54.346Z,101728.19
2023-04-20T12:53:21.241Z,101728.28
2023-04-20T12:55:49.555Z,101722.34
2023-04-20T12:58:20.309Z,101718.44
2023-04-20T13:00:47.898Z,101720.25
2023-04-20T13:03:15.320Z,101715.47
2023-04-20T13:05:43.575Z,101728.09
2023-04-20T13:08:11.371Z,101719.34
2023-04-20T13:10:39.797Z,101718.28
2023-04-20T13:13:06.849Z,101710.34
2023-04-20T13:15:39.227Z,101712.69
2023-04-20T13:18:07.020Z,101710.44
2023-04-20T13:20:33.929Z,101718.63
2023-04-20T13:23:01.719Z,101705.81
2023-04-20T13:25:30.127Z,101716.09
2023-04-20T13:27:57.112Z,101700.63
2023-04-20T13:30:24.738Z,101706.16
2023-04-20T13:32:51.987Z,101700.81
2023-04-20T13:35:19.109Z,101696.56
2023-04-20T13:37:46.219Z,101693.44
2023-04-20T13:40:13.600Z,101700.13
2023-04-20T13:42:40.541Z,101688.28
2023-04-20T13:45:07.948Z,101688.84
2023-04-20T13:47:34.852Z,101695.00
2023-04-20T13:50:03.571Z,101684.53
2023-04-20T13:52:30.546Z,101683.34
2023-04-20T13:54:57.378Z,101682.00
2023-04-20T13:57:24.253Z,101682.84
2023-04-20T13:59:50.981Z,101676.06
2023-04-20T14:02:17.987Z,101679.72
2023-04-20T14:04:44.972Z,101677.84
2023-04-20T14:07:11.821Z,101674.81
2023-04-20T14:09:38.655Z,101665.91
2023-04-20T14:12:05.707Z,101663.84
2023-04-20T14:14:32.642Z,101667.16
2023-04-20T14:16:59.478Z,101663.84
2023-04-20T14:19:26.529Z,101657.03
2023-04-20T14:21:53.484Z,101658.41
2023-04-20T14:24:20.456Z,101664.44
2023-04-20T14:26:47.412Z,101661.13
2023-04-20T14:29:14.195Z,101665.22
2023-04-20T14:31:41.060Z,101654.03
2023-04-20T14:34:09.672Z,101641.50
2023-04-20T14:36:36.490Z,101650.19
2023-04-20T14:39:03.395Z,101642.44
2023-04-20T14:41:32.279Z,101644.13
2023-04-20T14:44:00.358Z,101648.25
2023-04-20T14:46:27.226Z,101642.00
2023-04-20T14:48:54.136Z,101644.25
2023-04-20T14:51:21.137Z,101650.44
2023-04-20T14:53:47.957Z,101638.31
2023-04-20T14:56:14.705Z,101641.06
2023-04-20T14:58:42.509Z,101639.03
2023-04-20T15:01:09.372Z,101644.72
2023-04-20T15:03:36.506Z,101638.63
2023-04-20T15:06:03.671Z,101643.03
2023-04-20T15:08:30.792Z,101635.06
2023-04-20T15:10:57.651Z,101638.75
2023-04-20T15:13:25.119Z,101632.81
2023-04-20T15:15:54.867Z,101629.84
2023-04-20T15:18:22.313Z,101633.81
2023-04-20T15:20:51.246Z,101635.16
2023-04-20T15:23:18.045Z,101631.06
2023-04-20T15:25:45.037Z,101623.56
2023-04-20T15:28:11.886Z,101628.84
2023-04-20T15:30:38.685Z,101621.19
2023-04-20T15:33:05.905Z,101616.53
2023-04-20T15:35:33.726Z,101609.41
2023-04-20T15:38:00.736Z,101615.53
2023-04-20T15:40:27.692Z,101606.31
2023-04-20T15:42:57.673Z,101610.78
2023-04-20T15:45:24.656Z,101618.44
2023-04-20T15:47:51.780Z,101612.25
2023-04-20T15:50:18.821Z,101612.88
2023-04-20T15:52:49.587Z,101612.78
2023-04-20T15:55:16.977Z,101605.09
2023-04-20T15:57:44.711Z,101613.47
2023-04-20T16:00:12.641Z,101599.31
2023-04-20T16:02:40.884Z,101605.78
2023-04-20T16:05:09.105Z,101601.78
2023-04-20T16:07:36.000Z,101603.88
2023-04-20T16:10:03.108Z,101604.47
2023-04-20T16:12:30.008Z,101601.72
2023-04-20T16:14:57.389Z,101594.63
2023-04-20T16:17:24.509Z,101593.84
2023-04-20T16:19:51.473Z,101594.38
2023-04-20T16:22:18.350Z,101582.34
2023-04-20T16:24:45.341Z,101588.13
2023-04-20T16:27:12.130Z,101577.22
2023-04-20T16:29:39.012Z,101579.97
2023-04-20T16:32:06.379Z,101581.91
2023-04-20T16:34:33.259Z,101582.19
2023-04-20T16:37:00.030Z,101586.25
2023-04-20T16:39:26.857Z,101587.22
2023-04-20T16:41:54.199Z,101587.91
2023-04-20T16:44:21.350Z,101589.16
2023-04-20T16:46:51.257Z,101580.38
2023-04-20T16:49:18.703Z,101580.94
2023-04-20T16:51:45.711Z,101572.53
2023-04-20T16:54:12.987Z,101576.50
2023-04-20T16:56:40.694Z,101575.69
2023-04-20T16:59:08.129Z,101570.41
2023-04-20T17:01:35.133Z,101570.00
2023-04-20T17:04:02.307Z,101580.66
2023-04-20T17:06:29.528Z,101573.31
2023-04-20T17:09:01.420Z,101566.81
2023-04-20T17:11:28.343Z,101570.31
2023-04-20T17:13:55.057Z,101560.81
2023-04-20T17:16:21.977Z,101571.22
2023-04-20T17:18:48.805Z,101557.63
2023-04-20T17:21:15.689Z,101562.84
2023-04-20T17:23:42.547Z,101565.09
2023-04-20T17:26:09.691Z,101560.84
2023-04-20T17:28:36.488Z,101556.19
2023-04-20T17:31:03.436Z,101551.59
2023-04-20T17:33:30.712Z,101543.47
2023-04-20T17:35:57.805Z,101553.66
2023-04-20T17:38:24.611Z,101546.44
2023-04-20T17:40:51.658Z,101548.16
2023-04-20T17:43:18.980Z,101552.63
2023-04-20T17:45:49.232Z,101545.44
2023-04-20T17:48:16.333Z,101548.88
2023-04-20T17:50:43.148Z,101540.50
2023-04-20T17:53:10.055Z,101542.00
2023-04-20T17:55:37.002Z,101543.28
2023-04-20T17:58:04.980Z,101543.97
2023-04-20T18:00:31.874Z,101545.34
2023-04-20T18:02:59.855Z,101546.63
2023-04-20T18:05:27.283Z,101546.88
2023-04-20T18:07:54.104Z,101537.16
2023-04-20T18:10:20.923Z,101542.44
2023-04-20T18:12:47.752Z,101545.34
2023-04-20T18:15:14.502Z,101541.50
2023-04-20T18:17:42.363Z,101545.28
2023-04-20T18:20:11.000Z,101534.94
2023-04-20T18:22:38.599Z,101537.63
2023-04-20T18:25:06.002Z,101537.72
2023-04-20T18:27:32.840Z,101539.81
2023-04-20T18:30:02.534Z,101542.06
2023-04-20T18:32:30.991Z,101538.88
2023-04-20T18:34:59.254Z,101534.06
2023-04-20T18:37:26.112Z,101545.03
2023-04-20T18:39:52.944Z,101543.59
2023-04-20T18:42:19.737Z,101539.78
2023-04-20T18:44:46.533Z,101536.63
2023-04-20T18:47:13.405Z,101542.03
2023-04-20T18:49:40.242Z,101543.81
2023-04-20T18:52:07.174Z,101537.44
2023-04-20T18:54:35.665Z,101535.06
2023-04-20T18:57:02.808Z,101534.38
2023-04-20T18:59:29.633Z,101540.69
2023-04-20T19:01:56.599Z,101526.06
2023-04-20T19:04:23.588Z,101539.78
2023-04-20T19:06:50.775Z,101538.06
2023-04-20T19:09:17.648Z,101540.78
2023-04-20T19:11:44.797Z,101541.16
2023-04-20T19:14:11.733Z,101531.75
2023-04-20T19:16:38.586Z,101530.28
2023-04-20T19:19:05.702Z,101520.94
2023-04-20T19:21:32.778Z,101527.72
2023-04-20T19:23:59.597Z,101525.31
2023-04-20T19:26:26.472Z,101533.31
2023-04-20T19:28:53.520Z,101529.75
2023-04-20T19:31:20.839Z,101529.22
2023-04-20T19:33:47.775Z,101530.81
2023-04-20T19:36:14.865Z,101529.09
2023-04-20T19:38:42.107Z,101529.53
2023-04-20T19:41:09.019Z,101528.41
2023-04-20T19:43:36.551Z,101528.78
2023-04-20T19:46:04.048Z,101523.66
2023-04-20T19:48:30.887Z,101531.84
2023-04-20T19:50:59.186Z,101528.69
2023-04-20T19:53:26.070Z,101525.28
2023-04-20T19:55:52.910Z,101523.66
2023-04-20T19:58:19.718Z,101527.34
2023-04-20T20:00:46.794Z,101523.31
2023-04-20T20:03:15.865Z,101529.63
2023-04-20T20:05:43.948Z,101526.16
2023-04-20T20:08:11.953Z,101518.00
2023-04-20T20:10:39.093Z,101526.72
2023-04-20T20:13:06.118Z,101520.88
2023-04-20T20:15:33.223Z,101524.84
2023-04-20T20:18:00.070Z,101525.50
2023-04-20T20:20:31.046Z,101527.28
2023-04-20T20:22:59.698Z,101521.53
2023-04-20T20:25:26.670Z,101521.16
2023-04-20T20:27:53.719Z,101527.50
2023-04-20T20:30:20.868Z,101517.72
2023-04-20T20:32:47.929Z,101525.72
2023-04-20T20:35:14.857Z,101531.75
2023-04-20T20:37:42.366Z,101524.06
2023-04-20T20:40:15.016Z,101530.44
2023-04-20T20:42:42.745Z,101527.69
2023-04-20T20:45:13.336Z,101526.22
2023-04-20T20:47:41.178Z,101532.63
2023-04-20T20:50:09.306Z,101535.50
2023-04-20T20:52:36.212Z,101533.69
2023-04-20T20:55:04.140Z,101538.00
2023-04-20T20:57:31.044Z,101525.25
2023-04-20T20:59:58.489Z,101533.00
2023-04-20T21:02:25.859Z,101539.13
2023-04-20T21:04:53.480Z,101531.22
2023-04-20T21:07:20.427Z,101525.94
2023-04-20T21:09:47.551Z,101514.78
2023-04-20T21:12:14.329Z,101517.63
2023-04-20T21:14:41.101Z,101520.34
2023-04-20T21:17:07.951Z,101511.69
2023-04-20T21:19:34.862Z,101504.38
2023-04-20T21:22:01.635Z,101504.34
2023-04-20T21:24:28.464Z,101513.44
2023-04-20T21:26:55.376Z,101505.59
2023-04-20T21:29:22.151Z,101505.63
2023-04-20T21:31:49.027Z,101501.56
2023-04-20T21:34:15.880Z,101506.31
2023-04-20T21:36:42.718Z,101502.66
2023-04-20T21:39:09.494Z,101504.66
2023-04-20T21:41:36.343Z,101507.31
2023-04-20T21:44:03.281Z,101511.97
2023-04-20T21:46:30.144Z,101512.59
2023-04-20T21:48:57.034Z,101511.50
2023-04-20T21:51:23.921Z,101500.59
2023-04-20T21:53:50.645Z,101504.91
2023-04-20T21:56:18.555Z,101503.75
2023-04-20T21:58:45.302Z,101505.53
2023-04-20T22:01:12.087Z,101498.81
2023-04-20T22:03:39.048Z,101500.84
2023-04-20T22:06:06.600Z,101502.53
2023-04-20T22:08:33.412Z,101500.22
2023-04-20T22:11:00.321Z,101496.88
2023-04-20T22:13:27.058Z,101506.22
2023-04-20T22:15:53.944Z,101511.72
2023-04-20T22:18:21.231Z,101511.28
2023-04-20T22:20:48.077Z,101519.63
2023-04-20T22:23:15.348Z,101521.38
2023-04-20T22:25:43.017Z,101521.84
2023-04-20T22:28:11.002Z,101521.28
2023-04-20T22:30:37.793Z,101521.56
2023-04-20T22:33:04.705Z,101519.91
2023-04-20T22:35:31.818Z,101521.19
2023-04-20T22:37:58.628Z,101519.16
2023-04-20T22:40:25.733Z,101515.91
2023-04-20T22:42:52.496Z,101514.38
2023-04-20T22:45:22.272Z,101513.59
2023-04-20T22:47:49.307Z,101517.09
2023-04-20T22:50:16.289Z,101517.28
2023-04-20T22:52:43.195Z,101517.75
2023-04-20T22:55:10.675Z,101515.44
2023-04-20T22:57:39.261Z,101519.41
2023-04-20T23:00:07.973Z,101522.91
2023-04-20T23:02:34.948Z,101520.16
2023-04-20T23:05:03.383Z,101521.44
2023-04-20T23:07:32.063Z,101515.16
2023-04-20T23:10:00.028Z,101518.66
2023-04-20T23:12:29.652Z,101509.91
2023-04-20T23:14:56.828Z,101506.38
2023-04-20T23:17:23.834Z,101510.56
2023-04-20T23:19:51.144Z,101502.63
2023-04-20T23:22:18.145Z,101504.56
2023-04-20T23:24:45.012Z,101503.91
2023-04-20T23:27:11.763Z,101492.16
2023-04-20T23:29:38.565Z,101506.50
2023-04-20T23:32:05.957Z,101499.66
2023-04-20T23:34:32.844Z,101495.41
2023-04-20T23:36:59.797Z,101492.75
2023-04-20T23:39:26.602Z,101486.44
2023-04-20T23:41:53.415Z,101487.25
2023-04-20T23:44:20.179Z,101493.66
2023-04-20T23:46:46.982Z,101485.25
2023-04-20T23:49:13.717Z,101481.06
2023-04-20T23:51:40.448Z,101483.94
2023-04-20T23:54:07.239Z,101492.78
2023-04-20T23:56:34.617Z,101483.03
2023-04-20T23:59:01.633Z,101489.34
